createdAt,value
2023-02-17T00:02:09.956Z,101786.88
2023-02-17T00:04:43.515Z,101786.31
2023-02-17T00:07:10.276Z,101788.72
2023-02-17T00:09:43.464Z,101779.19
2023-02-17T00:12:10.607Z,101779.88
2023-02-17T00:14:49.948Z,101793.66
2023-02-17T00:17:16.737Z,101786.53
2023-02-17T00:19:52.382Z,101785.75
2023-02-17T00:22:21.637Z,101783.88
2023-02-17T00:25:25.467Z,101790.78
2023-02-17T00:27:52.203Z,101783.00
2023-02-17T00:30:26.807Z,101778.66
2023-02-17T00:32:57.034Z,101782.16
2023-02-17T00:35:32.583Z,101768.09
2023-02-17T00:38:05.462Z,101767.25
2023-02-17T00:40:32.331Z,101770.84
2023-02-17T00:43:05.597Z,101762.28
2023-02-17T00:45:35.321Z,101760.28
2023-02-17T00:48:08.716Z,101766.47
2023-02-17T00:50:38.772Z,101770.94
2023-02-17T00:53:08.782Z,101758.94
2023-02-17T00:55:42.438Z,101741.44
2023-02-17T00:58:16.479Z,101761.91
2023-02-17T01:00:53.415Z,101761.91
2023-02-17T01:03:41.478Z,101765.34
2023-02-17T01:06:36.912Z,101760.13
2023-02-17T01:09:21.639Z,101745.09
2023-02-17T01:11:48.495Z,101752.63
2023-02-17T01:14:21.514Z,101753.47
2023-02-17T01:16:49.654Z,101756.13
2023-02-17T01:19:26.400Z,101761.38
2023-02-17T01:21:53.098Z,101764.50
2023-02-17T01:24:26.563Z,101764.41
2023-02-17T01:26:53.524Z,101758.16
2023-02-17T01:29:20.450Z,101760.81
2023-02-17T01:31:53.535Z,101755.38
2023-02-17T01:34:28.571Z,101758.03
2023-02-17T01:37:01.529Z,101759.66
2023-02-17T01:39:28.267Z,101744.63
2023-02-17T01:42:01.492Z,101747.00
2023-02-17T01:44:33.014Z,101728.38
2023-02-17T01:47:06.546Z,101715.94
2023-02-17T01:49:46.422Z,101698.31
2023-02-17T01:52:23.098Z,101692.75
2023-02-17T01:55:04.856Z,101688.28
2023-02-17T01:57:46.503Z,101689.97
2023-02-17T02:00:15.033Z,101687.41
2023-02-17T02:03:18.176Z,101691.97
2023-02-17T02:06:25.120Z,101675.34
2023-02-17T02:09:28.517Z,101689.22
2023-02-17T02:12:06.664Z,101693.50
2023-02-17T02:14:39.652Z,101696.81
2023-02-17T02:17:15.933Z,101716.22
2023-02-17T02:20:12.478Z,101716.22
2023-02-17T02:22:51.630Z,101703.75
2023-02-17T02:25:48.554Z,101698.41
2023-02-17T02:28:42.825Z,101700.16
2023-02-17T02:31:43.710Z,101701.94
2023-02-17T02:34:17.308Z,101690.38
2023-02-17T02:36:57.529Z,101685.78
2023-02-17T02:39:36.650Z,101684.94
2023-02-17T02:42:08.305Z,101673.44
2023-02-17T02:44:44.252Z,101678.75
2023-02-17T02:47:50.536Z,101683.88
2023-02-17T02:50:47.588Z,101683.09
2023-02-17T02:53:27.532Z,101673.97
2023-02-17T02:56:33.296Z,101674.19
2023-02-17T02:59:36.580Z,101673.22
2023-02-17T03:02:35.496Z,101661.75
2023-02-17T03:05:50.575Z,101673.22
2023-02-17T03:08:56.632Z,101678.28
2023-02-17T03:11:38.565Z,101658.75
2023-02-17T03:14:16.001Z,101656.00
2023-02-17T03:16:49.661Z,101654.41
2023-02-17T03:19:18.402Z,101650.69
2023-02-17T03:21:58.642Z,101649.75
2023-02-17T03:24:38.029Z,101645.25
2023-02-17T03:27:14.681Z,101633.84
2023-02-17T03:29:50.652Z,101652.97
2023-02-17T03:32:50.361Z,101639.75
2023-02-17T03:35:32.464Z,101629.28
2023-02-17T03:38:07.995Z,101615.03
2023-02-17T03:40:41.506Z,101625.69
2023-02-17T03:43:08.518Z,101613.94
2023-02-17T03:45:44.577Z,101605.91
2023-02-17T03:48:11.601Z,101611.28
2023-02-17T03:50:51.629Z,101610.34
2023-02-17T03:53:21.404Z,101622.91
2023-02-17T03:56:11.715Z,101613.28
2023-02-17T03:58:45.560Z,101610.41
2023-02-17T04:01:13.886Z,101602.00
2023-02-17T04:03:47.633Z,101610.63
2023-02-17T04:06:22.441Z,101592.84
2023-02-17T04:08:55.781Z,101594.00
2023-02-17T04:11:45.774Z,101586.97
2023-02-17T04:14:19.464Z,101566.50
2023-02-17T04:16:46.287Z,101588.03
2023-02-17T04:19:21.203Z,101594.41
2023-02-17T04:21:54.620Z,101598.13
2023-02-17T04:24:24.840Z,101600.88
2023-02-17T04:27:10.522Z,101599.19
2023-02-17T04:29:37.535Z,101572.84
2023-02-17T04:32:11.639Z,101578.38
2023-02-17T04:34:50.087Z,101595.00
2023-02-17T04:37:24.783Z,101601.19
2023-02-17T04:39:57.598Z,101599.69
2023-02-17T04:42:31.602Z,101611.75
2023-02-17T04:45:07.566Z,101607.91
2023-02-17T04:47:37.605Z,101598.22
2023-02-17T04:50:12.640Z,101600.03
2023-02-17T04:52:42.118Z,101608.88
2023-02-17T04:55:15.768Z,101589.69
2023-02-17T04:57:45.026Z,101578.06
2023-02-17T05:00:12.280Z,101556.03
2023-02-17T05:02:45.685Z,101566.59
2023-02-17T05:05:31.729Z,101560.41
2023-02-17T05:08:08.733Z,101554.88
2023-02-17T05:10:41.522Z,101561.06
2023-02-17T05:13:08.505Z,101569.59
2023-02-17T05:15:44.646Z,101569.81
2023-02-17T05:18:18.523Z,101556.59
2023-02-17T05:20:51.652Z,101565.91
2023-02-17T05:23:18.660Z,101555.13
2023-02-17T05:25:57.858Z,101550.09
2023-02-17T05:28:30.815Z,101556.94
2023-02-17T05:31:14.695Z,101550.09
2023-02-17T05:33:50.494Z,101557.91
2023-02-17T05:39:10.560Z,101580.78
2023-02-17T05:41:46.870Z,101566.94
2023-02-17T05:44:19.618Z,101585.19
2023-02-17T05:46:48.919Z,101569.09
2023-02-17T05:49:24.943Z,101546.13
2023-02-17T05:51:51.836Z,101563.13
2023-02-17T05:54:32.586Z,101546.72
2023-02-17T05:56:59.556Z,101571.16
2023-02-17T05:59:33.592Z,101554.72
2023-02-17T06:02:06.125Z,101542.00
2023-02-17T06:04:39.685Z,101555.97
2023-02-17T06:07:12.717Z,101551.81
2023-02-17T06:09:47.235Z,101549.63
2023-02-17T06:12:14.022Z,101541.84
2023-02-17T06:14:45.726Z,101550.59
2023-02-17T06:17:18.604Z,101522.19
2023-02-17T06:19:51.689Z,101540.22
2023-02-17T06:22:24.675Z,101535.22
2023-02-17T06:24:53.562Z,101528.00
2023-02-17T06:27:26.672Z,101530.84
2023-02-17T06:29:53.407Z,101527.13
2023-02-17T06:32:26.601Z,101536.63
2023-02-17T06:34:53.389Z,101544.41
2023-02-17T06:37:26.719Z,101546.09
2023-02-17T06:39:53.555Z,101541.75
2023-02-17T06:42:26.649Z,101545.06
2023-02-17T06:44:56.006Z,101546.09
2023-02-17T06:47:29.670Z,101547.63
2023-02-17T06:50:06.422Z,101552.94
2023-02-17T06:52:33.165Z,101541.28
2023-02-17T06:55:06.794Z,101530.63
2023-02-17T06:57:33.626Z,101527.38
2023-02-17T07:00:00.782Z,101525.97
2023-02-17T07:05:40.633Z,101517.38
2023-02-17T07:08:07.586Z,101542.06
2023-02-17T07:10:41.584Z,101525.31
2023-02-17T07:13:08.863Z,101533.91
2023-02-17T07:15:42.653Z,101542.00
2023-02-17T07:18:09.484Z,101532.16
2023-02-17T07:20:43.719Z,101523.25
2023-02-17T07:23:10.693Z,101531.22
2023-02-17T07:26:11.756Z,101519.72
2023-02-17T07:28:40.016Z,101530.25
2023-02-17T07:31:40.532Z,101508.31
2023-02-17T07:34:14.662Z,101506.03
2023-02-17T07:36:55.068Z,101520.69
2023-02-17T07:39:31.676Z,101523.47
2023-02-17T07:42:01.213Z,101526.16
2023-02-17T07:44:34.860Z,101520.00
2023-02-17T07:47:01.516Z,101522.34
2023-02-17T07:49:55.663Z,101521.38
2023-02-17T07:52:37.092Z,101511.03
2023-02-17T07:55:13.428Z,101530.09
2023-02-17T07:57:40.355Z,101531.94
2023-02-17T08:00:14.813Z,101539.72
2023-02-17T08:02:41.524Z,101527.16
2023-02-17T08:05:21.064Z,101515.97
2023-02-17T08:08:14.117Z,101519.81
2023-02-17T08:11:11.511Z,101506.16
2023-02-17T08:13:38.517Z,101507.97
2023-02-17T08:17:09.322Z,101490.28
2023-02-17T08:19:47.434Z,101487.22
2023-02-17T08:22:31.875Z,101508.66
2023-02-17T08:25:01.136Z,101504.16
2023-02-17T08:27:34.725Z,101508.44
2023-02-17T08:30:01.626Z,101521.66
2023-02-17T08:32:37.657Z,101509.09
2023-02-17T08:35:14.237Z,101524.84
2023-02-17T08:37:47.647Z,101524.56
2023-02-17T08:40:27.084Z,101509.13
2023-02-17T08:43:02.990Z,101540.00
2023-02-17T08:45:36.147Z,101537.28
2023-02-17T08:48:12.185Z,101538.84
2023-02-17T08:50:39.021Z,101543.97
2023-02-17T08:53:12.775Z,101535.97
2023-02-17T08:55:49.265Z,101534.84
2023-02-17T08:58:25.350Z,101542.75
2023-02-17T09:00:52.332Z,101534.97
2023-02-17T09:08:46.076Z,101558.75
2023-02-17T09:11:55.872Z,101568.25
2023-02-17T09:14:24.371Z,101553.31
2023-02-17T09:17:03.836Z,101565.91
2023-02-17T09:19:30.588Z,101562.19
2023-02-17T09:22:03.715Z,101545.22
2023-02-17T09:24:49.801Z,101564.63
2023-02-17T09:27:24.759Z,101563.59
2023-02-17T09:29:51.518Z,101570.50
2023-02-17T09:32:36.142Z,101562.31
2023-02-17T09:35:12.447Z,101552.19
2023-02-17T09:37:48.591Z,101524.34
2023-02-17T09:40:35.389Z,101515.91
2023-02-17T09:43:10.004Z,101519.09
2023-02-17T09:45:37.069Z,101502.78
2023-02-17T09:48:38.555Z,101510.44
2023-02-17T09:51:19.565Z,101514.38
2023-02-17T09:54:11.014Z,101509.16
2023-02-17T09:57:15.634Z,101494.63
2023-02-17T09:59:53.773Z,101483.44
2023-02-17T10:06:09.060Z,101502.28
2023-02-17T10:09:12.945Z,101521.53
2023-02-17T10:11:49.728Z,101521.28
2023-02-17T10:14:48.775Z,101520.19
2023-02-17T10:17:35.117Z,101504.00
2023-02-17T10:20:38.140Z,101498.41
2023-02-17T10:23:10.888Z,101500.97
2023-02-17T10:25:58.785Z,101495.81
2023-02-17T10:28:34.899Z,101514.16
2023-02-17T10:31:38.842Z,101492.50
2023-02-17T10:34:24.802Z,101500.38
2023-02-17T10:37:31.808Z,101484.75
2023-02-17T10:39:58.804Z,101478.47
2023-02-17T10:42:35.782Z,101494.38
2023-02-17T10:45:38.806Z,101486.25
2023-02-17T10:48:28.775Z,101485.72
2023-02-17T10:51:17.625Z,101495.31
2023-02-17T10:53:55.696Z,101502.75
2023-02-17T10:56:46.968Z,101524.91
2023-02-17T10:59:32.850Z,101515.88
2023-02-17T11:03:12.519Z,101531.56
2023-02-17T11:05:49.790Z,101541.56
2023-02-17T11:08:49.771Z,101543.25
2023-02-17T11:11:31.083Z,101551.25
2023-02-17T11:14:13.778Z,101568.16
2023-02-17T11:16:58.748Z,101538.91
2023-02-17T11:19:30.111Z,101534.63
2023-02-17T11:22:06.873Z,101540.94
2023-02-17T11:24:41.738Z,101531.47
2023-02-17T11:27:18.785Z,101532.72
2023-02-17T11:29:45.447Z,101560.53
2023-02-17T11:32:19.772Z,101571.31
2023-02-17T11:34:57.726Z,101575.03
2023-02-17T11:37:35.781Z,101560.53
2023-02-17T11:40:26.258Z,101574.53
2023-02-17T11:43:06.232Z,101573.47
2023-02-17T11:46:01.100Z,101569.63
2023-02-17T11:49:12.852Z,101563.84
2023-02-17T11:52:15.754Z,101565.03
2023-02-17T11:54:51.558Z,101585.94
2023-02-17T11:57:51.749Z,101570.88
2023-02-17T12:00:36.972Z,101567.50
2023-02-17T12:04:07.853Z,101551.16
2023-02-17T12:07:24.206Z,101558.75
2023-02-17T12:10:03.789Z,101555.31
2023-02-17T12:12:50.401Z,101574.13
2023-02-17T12:15:38.855Z,101558.19
2023-02-17T12:18:21.186Z,101552.84
2023-02-17T12:21:31.858Z,101562.69
2023-02-17T12:24:11.829Z,101565.38
2023-02-17T12:27:10.762Z,101568.91
2023-02-17T12:30:01.251Z,101587.66
2023-02-17T12:32:54.891Z,101588.63
2023-02-17T12:35:43.827Z,101609.00
2023-02-17T12:38:27.092Z,101621.53
2023-02-17T12:41:54.769Z,101603.91
2023-02-17T12:44:27.971Z,101591.09
2023-02-17T12:47:06.838Z,101604.66
2023-02-17T12:50:07.341Z,101618.34
2023-02-17T12:52:49.173Z,101622.56
2023-02-17T12:55:25.522Z,101624.81
2023-02-17T12:58:18.910Z,101630.56
2023-02-17T13:01:20.925Z,101611.47
2023-02-17T13:03:55.062Z,101628.22
2023-02-17T13:06:48.688Z,101616.03
2023-02-17T13:09:31.945Z,101623.09
2023-02-17T13:12:30.193Z,101617.13
2023-02-17T13:15:08.885Z,101654.78
2023-02-17T13:17:59.142Z,101616.91
2023-02-17T13:20:38.843Z,101623.00
2023-02-17T13:23:18.967Z,101612.31
2023-02-17T13:25:52.859Z,101638.91
2023-02-17T13:28:40.154Z,101637.94
2023-02-17T13:31:24.195Z,101619.88
2023-02-17T13:34:05.902Z,101618.72
2023-02-17T13:36:38.868Z,101647.56
2023-02-17T13:39:35.384Z,101631.44
2023-02-17T13:42:55.121Z,101622.56
2023-02-17T13:46:05.211Z,101652.13
2023-02-17T13:48:34.519Z,101650.44
2023-02-17T13:51:11.102Z,101636.97
2023-02-17T13:53:41.232Z,101661.84
2023-02-17T13:56:30.871Z,101603.59
2023-02-17T13:59:18.650Z,101612.34
2023-02-17T14:02:00.884Z,101612.97
2023-02-17T14:04:32.000Z,101643.81
2023-02-17T14:07:10.987Z,101611.38
2023-02-17T14:09:41.830Z,101603.78
2023-02-17T14:12:27.956Z,101601.69
2023-02-17T14:14:55.115Z,101593.97
2023-02-17T14:17:39.990Z,101623.44
2023-02-17T14:20:14.024Z,101607.44
2023-02-17T14:22:59.179Z,101627.59
2023-02-17T14:25:41.933Z,101645.94
2023-02-17T14:28:20.590Z,101662.28
2023-02-17T14:30:54.931Z,101629.06
2023-02-17T14:33:30.992Z,101615.97
2023-02-17T14:36:08.279Z,101615.66
2023-02-17T14:38:49.000Z,101614.91
2023-02-17T14:41:16.029Z,101631.34
2023-02-17T14:46:36.972Z,101625.03
2023-02-17T14:49:04.288Z,101632.38
2023-02-17T14:51:42.951Z,101678.50
2023-02-17T14:54:18.524Z,101652.91
2023-02-17T14:56:58.929Z,101644.25
2023-02-17T14:59:32.893Z,101648.94
2023-02-17T15:02:14.030Z,101652.91
2023-02-17T15:04:48.070Z,101657.91
2023-02-17T15:07:18.351Z,101671.00
2023-02-17T15:09:55.968Z,101674.25
2023-02-17T15:12:26.144Z,101694.09
2023-02-17T15:15:05.005Z,101667.63
2023-02-17T15:17:35.218Z,101658.97
2023-02-17T15:20:09.946Z,101654.47
2023-02-17T15:22:44.524Z,101664.31
2023-02-17T15:25:31.089Z,101694.53
2023-02-17T15:28:06.976Z,101662.19
2023-02-17T15:30:36.284Z,101651.50
2023-02-17T15:33:10.032Z,101655.13
2023-02-17T15:35:37.212Z,101683.84
2023-02-17T15:38:14.759Z,101690.16
2023-02-17T15:40:49.012Z,101674.25
2023-02-17T15:43:28.922Z,101690.78
2023-02-17T15:45:58.625Z,101714.06
2023-02-17T15:48:39.867Z,101707.97
2023-02-17T15:51:12.894Z,101701.00
2023-02-17T15:53:39.908Z,101717.59
2023-02-17T15:56:41.043Z,101708.84
2023-02-17T15:59:18.995Z,101706.81
2023-02-17T16:01:52.956Z,101701.34
2023-02-17T16:04:26.619Z,101716.63
2023-02-17T16:07:00.011Z,101716.31
2023-02-17T16:09:34.225Z,101716.59
2023-02-17T16:12:01.830Z,101722.94
2023-02-17T16:14:47.045Z,101722.06
2023-02-17T16:17:16.391Z,101741.25
2023-02-17T16:19:50.974Z,101738.06
2023-02-17T16:22:18.055Z,101747.47
2023-02-17T16:24:51.945Z,101746.28
2023-02-17T16:27:19.250Z,101771.63
2023-02-17T16:29:52.993Z,101758.25
2023-02-17T16:32:27.096Z,101774.03
2023-02-17T16:35:00.981Z,101791.13
2023-02-17T16:37:28.181Z,101758.66
2023-02-17T16:40:02.171Z,101782.03
2023-02-17T16:42:29.134Z,101778.41
2023-02-17T16:47:40.957Z,101769.53
2023-02-17T16:50:09.649Z,101787.72
2023-02-17T16:52:45.422Z,101794.34
2023-02-17T16:55:25.938Z,101792.06
2023-02-17T16:58:02.601Z,101774.34
2023-02-17T17:00:40.029Z,101803.91
2023-02-17T17:03:32.036Z,101802.38
2023-02-17T17:06:06.594Z,101809.16
2023-02-17T17:08:33.898Z,101827.09
2023-02-17T17:11:07.951Z,101851.94
2023-02-17T17:13:35.226Z,101859.69
2023-02-17T17:16:09.990Z,101843.63
2023-02-17T17:18:37.143Z,101864.38
2023-02-17T17:21:11.047Z,101873.72
2023-02-17T17:23:45.955Z,101846.50
2023-02-17T17:26:27.611Z,101866.41
2023-02-17T17:29:04.761Z,101880.09
2023-02-17T17:31:38.580Z,101862.41
2023-02-17T17:34:12.945Z,101899.31
2023-02-17T17:36:44.051Z,101884.28
2023-02-17T17:39:27.039Z,101890.28
2023-02-17T17:41:54.092Z,101905.72
2023-02-17T17:44:28.083Z,101929.03
2023-02-17T17:46:55.243Z,101931.03
2023-02-17T17:49:25.144Z,101920.28
2023-02-17T17:51:59.251Z,101915.78
2023-02-17T17:54:33.012Z,101949.97
2023-02-17T17:57:06.984Z,101960.63
2023-02-17T17:59:34.233Z,101968.94
2023-02-17T18:02:07.897Z,101961.97
2023-02-17T18:04:37.526Z,101954.75
2023-02-17T18:07:11.077Z,101951.50
2023-02-17T18:09:39.391Z,101961.75
2023-02-17T18:12:20.124Z,101961.00
2023-02-17T18:14:52.285Z,101973.38
2023-02-17T18:17:27.042Z,101973.44
2023-02-17T18:19:55.391Z,101989.22
2023-02-17T18:25:06.004Z,101996.81
2023-02-17T18:27:51.064Z,101989.47
2023-02-17T18:30:20.687Z,102018.88
2023-02-17T18:32:48.049Z,101990.78
2023-02-17T18:35:22.177Z,102008.97
2023-02-17T18:37:49.541Z,102015.84
2023-02-17T18:40:25.014Z,101995.41
2023-02-17T18:42:52.274Z,101985.81
2023-02-17T18:45:27.067Z,102023.94
2023-02-17T18:47:54.312Z,102019.31
2023-02-17T18:50:21.551Z,102036.81
2023-02-17T18:52:55.047Z,102019.94
2023-02-17T18:55:29.066Z,102052.81
2023-02-17T18:57:59.430Z,102043.75
2023-02-17T19:00:33.132Z,102041.84
2023-02-17T19:03:07.028Z,102016.59
2023-02-17T19:08:41.003Z,102039.88
2023-02-17T19:11:15.058Z,102047.44
2023-02-17T19:13:49.003Z,102033.56
2023-02-17T19:16:21.287Z,102046.78
2023-02-17T19:18:55.056Z,102032.63
2023-02-17T19:21:23.302Z,102033.38
2023-02-17T19:23:50.804Z,102051.25
2023-02-17T19:26:25.061Z,102048.50
2023-02-17T19:28:59.079Z,102060.25
2023-02-17T19:31:26.472Z,102054.59
2023-02-17T19:34:00.128Z,102059.81
2023-02-17T19:36:27.294Z,102070.97
2023-02-17T19:39:03.074Z,102084.81
2023-02-17T19:41:37.254Z,102068.59
2023-02-17T19:44:12.028Z,102076.28
2023-02-17T19:46:46.311Z,102086.44
2023-02-17T19:49:13.713Z,102066.00
2023-02-17T19:51:48.107Z,102083.94
2023-02-17T19:54:15.482Z,102081.03
2023-02-17T19:56:49.196Z,102085.16
2023-02-17T19:59:16.906Z,102101.81
2023-02-17T20:01:51.379Z,102086.63
2023-02-17T20:04:27.476Z,102069.19
2023-02-17T20:07:01.098Z,102106.53
2023-02-17T20:09:35.131Z,102105.56
2023-02-17T20:12:02.091Z,102097.69
2023-02-17T20:14:40.049Z,102099.41
2023-02-17T20:17:07.286Z,102080.69
2023-02-17T20:19:45.036Z,102079.84
2023-02-17T20:22:12.353Z,102066.63
2023-02-17T20:24:47.005Z,102069.00
2023-02-17T20:27:16.481Z,102072.44
2023-02-17T20:29:52.348Z,102091.84
2023-02-17T20:32:20.108Z,102084.81
2023-02-17T20:34:54.499Z,102091.53
2023-02-17T20:37:21.424Z,102084.19
2023-02-17T20:39:56.167Z,102097.94
2023-02-17T20:42:23.365Z,102079.84
2023-02-17T20:44:58.037Z,102067.38
2023-02-17T20:47:33.701Z,102074.19
2023-02-17T20:50:00.909Z,102102.50
2023-02-17T20:52:34.106Z,102075.00
2023-02-17T20:55:01.282Z,102107.81
2023-02-17T20:57:35.046Z,102075.19
2023-02-17T21:00:05.566Z,102098.72
2023-02-17T21:02:39.051Z,102112.22
2023-02-17T21:05:12.925Z,102090.66
2023-02-17T21:07:47.088Z,102078.34
2023-02-17T21:10:20.465Z,102107.56
2023-02-17T21:12:54.109Z,102093.56
2023-02-17T21:15:28.036Z,102102.22
2023-02-17T21:18:02.134Z,102110.38
2023-02-17T21:20:29.323Z,102089.69
2023-02-17T21:22:56.482Z,102118.56
2023-02-17T21:25:30.085Z,102103.69
2023-02-17T21:27:57.437Z,102101.53
2023-02-17T21:30:33.170Z,102147.41
2023-02-17T21:33:10.200Z,102113.81
2023-02-17T21:35:44.223Z,102131.94
2023-02-17T21:38:12.492Z,102125.94
2023-02-17T21:40:48.285Z,102144.22
2023-02-17T21:43:34.310Z,102131.34
2023-02-17T21:46:08.620Z,102147.06
2023-02-17T21:48:38.829Z,102136.81
2023-02-17T21:51:15.268Z,102127.63
2023-02-17T21:53:48.177Z,102140.63
2023-02-17T21:56:22.116Z,102134.50
2023-02-17T21:58:51.077Z,102121.78
2023-02-17T22:01:28.158Z,102112.06
2023-02-17T22:04:02.908Z,102129.28
2023-02-17T22:06:39.150Z,102109.59
2023-02-17T22:09:15.186Z,102140.53
2023-02-17T22:11:50.162Z,102113.72
2023-02-17T22:14:30.165Z,102100.06
2023-02-17T22:16:57.756Z,102115.34
2023-02-17T22:19:32.173Z,102116.63
2023-02-17T22:22:06.182Z,102135.78
2023-02-17T22:24:40.144Z,102120.41
2023-02-17T22:27:07.412Z,102108.59
2023-02-17T22:29:41.220Z,102093.84
2023-02-17T22:32:08.501Z,102106.44
2023-02-17T22:34:42.212Z,102116.69
2023-02-17T22:37:09.237Z,102122.16
2023-02-17T22:39:43.205Z,102109.28
2023-02-17T22:42:10.231Z,102140.22
2023-02-17T22:44:46.675Z,102108.41
2023-02-17T22:47:14.728Z,102117.06
2023-02-17T22:49:49.264Z,102114.59
2023-02-17T22:52:16.564Z,102124.28
2023-02-17T22:54:44.491Z,102136.31
2023-02-17T22:57:18.756Z,102104.59
2023-02-17T22:59:46.121Z,102123.34
2023-02-17T23:02:20.292Z,102098.59
2023-02-17T23:04:54.035Z,102128.81
2023-02-17T23:07:27.236Z,102101.88
2023-02-17T23:09:54.711Z,102087.25
2023-02-17T23:12:21.892Z,102079.34
2023-02-17T23:14:58.435Z,102083.03
2023-02-17T23:17:25.576Z,102072.97
2023-02-17T23:19:59.229Z,102087.84
2023-02-17T23:22:36.401Z,102104.38
2023-02-17T23:25:03.488Z,102106.97
2023-02-17T23:27:40.173Z,102106.09
2023-02-17T23:30:16.210Z,102079.47
2023-02-17T23:32:43.403Z,102077.81
2023-02-17T23:35:18.128Z,102078.50
2023-02-17T23:37:45.467Z,102068.91
2023-02-17T23:40:13.286Z,102069.78
2023-02-17T23:42:47.213Z,102066.44
2023-02-17T23:45:14.686Z,102068.13
2023-02-17T23:47:51.572Z,102069.38
2023-02-17T23:50:18.893Z,102052.03
2023-02-17T23:52:55.848Z,102060.31
2023-02-17T23:55:23.050Z,102042.88
2023-02-17T23:57:57.177Z,102041.31
